Aviation Digital Data Service (ADDS)

Output produced by METARs form (0048 UTC 21 July 2017)
found at http://aviationweather.gov/adds/metars/
 
KLEB 202336Z 2100/2124 VRB03KT P6SM SCT100 
     FM210800 00000KT 1/2SM FG VV001 
     FM211230 VRB03KT P6SM SCT200 
     FM211800 29009KT P6SM SCT060